Flight Track Log - Related Links

Times and Time Zones

All times are in EDT time to prevent confusion due to time zone crossing. See the EJA831 flight status page for this flight to view local times or setup timezone preferences in your user account.

Time Position Orientation Groundspeed Altitude Reporting Facility
EDT Latitude Longitude Course Direction KTS MPH feet Rate Location/Type
Fri 12:40:04 PM 34.2153 -119.1147 287° West 187 215 800  Level Los Angeles Center
Fri 12:40:59 PM 34.2325 -119.1822 287° West 239 275 3,900 2,932 Climbing Los Angeles Center
Fri 12:41:32 PM 34.2436 -119.2106 295° West 243 280 5,100 2,463 Climbing Los Angeles Center
Fri 12:42:34 PM 34.3139 -119.2783 321° Northwest 275 316 7,800 2,516 Climbing Los Angeles Center
Fri 12:43:36 PM 34.3858 -119.3233 333° Northwest 311 358 10,300 2,468 Climbing Los Angeles Center
Fri 12:44:38 PM 34.4219 -119.2478 60° Northeast 296 341 12,900 2,565 Climbing Los Angeles Center
Fri 12:45:40 PM 34.4042 -119.1525 103° East 292 336 15,600 2,371 Climbing Los Angeles Center
Fri 12:46:42 PM 34.3950 -119.0508 96° East 307 353 17,800 1,984 Climbing Los Angeles Center
Fri 12:47:44 PM 34.4200 -118.9467 74° East 321 369 19,700 2,274 Climbing Los Angeles Center
Fri 12:48:46 PM 34.4514 -118.8178 74° East 330 380 22,500 2,160 Climbing Los Angeles Center
Fri 12:49:49 PM 34.4786 -118.7078 73° East 339 390 24,200 1,536 Climbing Los Angeles Center
Fri 12:50:51 PM 34.5061 -118.5936 74° East 347 399 25,700 1,452 Climbing Los Angeles Center
Fri 12:51:53 PM 34.5350 -118.4753 73° East 359 413 27,200 1,355 Climbing Los Angeles Center
Fri 12:52:55 PM 34.5633 -118.3561 74° East 365 420 28,500 1,210 Climbing Los Angeles Center
Fri 12:53:57 PM 34.5925 -118.2314 74° East 379 436 29,700 1,113 Climbing Los Angeles Center
Fri 12:54:59 PM 34.6247 -118.0939 74° East 385 443 30,800 1,016 Climbing Los Angeles Center
Fri 12:56:01 PM 34.6422 -117.9625 81° East 394 453 31,800 968 Climbing Los Angeles Center
Fri 12:57:03 PM 34.6564 -117.8292 83° East 400 460 32,800 1,056 Climbing Los Angeles Center
Fri 12:58:06 PM 34.6728 -117.6667 83° East 407 468 34,000 1,056 Climbing Los Angeles Center
Fri 12:59:08 PM 34.6886 -117.5322 82° East 406 467 35,000 484 Climbing Los Angeles Center
Fri 01:00:10 PM 34.7025 -117.3931 83° East 417 480 35,000  Level Los Angeles Center
Fri 01:01:12 PM 34.7167 -117.2486 83° East 438 504 35,000  Level Los Angeles Center
Fri 01:02:14 PM 34.7342 -117.0739 83° East 441 507 35,000  Level Los Angeles Center
Fri 01:03:16 PM 34.7500 -116.9283 82° East 437 503 35,000  Level Los Angeles Center
Fri 01:04:19 PM 34.7650 -116.7808 83° East 441 507 35,000  Level Los Angeles Center
Fri 01:05:20 PM 34.7792 -116.6333 83° East 440 506 35,000  Level Los Angeles Center
Fri 01:06:23 PM 34.7936 -116.4858 83° East 443 510 35,000  Level Los Angeles Center
Fri 01:07:25 PM 34.7964 -116.3344 89° East 450 518 35,000  Level Los Angeles Center
Fri 01:08:27 PM 34.7931 -116.1558 91° East 443 510 35,000  Level Los Angeles Center
Fri 01:09:29 PM 34.7922 -116.0064 90° East 444 511 35,000  Level Los Angeles Center
Fri 01:10:31 PM 34.7897 -115.8567 91° East 445 512 35,000  Level Los Angeles Center
Fri 01:11:33 PM 34.7883 -115.7053 91° East 446 513 35,000 -484 Level Los Angeles Center
Fri 01:12:35 PM 34.7861 -115.5358 91° East 445 512 34,000 -1,258 Descending Los Angeles Center
Fri 01:13:37 PM 34.7831 -115.3925 91° East 431 496 32,400 -1,452 Descending Los Angeles Center
Fri 01:14:39 PM 34.7814 -115.2558 91° East 411 473 31,000 -1,392 Descending Los Angeles Center
Fri 01:15:42 PM 34.7786 -115.1125 91° East 421 484 29,500 -960 Descending Los Angeles Center
Fri 01:16:44 PM 34.7750 -114.9411 91° East 424 488 29,000 -242 Descending Los Angeles Center
Fri 01:17:46 PM 34.7725 -114.7978 91° East 425 489 29,000 -242 Level Los Angeles Center
Fri 01:18:48 PM 34.7703 -114.6528 91° East 429 494 28,500 -726 Descending Los Angeles Center
Fri 01:19:50 PM 34.7669 -114.5083 92° East 427 491 27,500 -968 Descending Los Angeles Center
Fri 01:20:52 PM 34.7817 -114.3644 83° East 432 497 26,500 -968 Descending Los Angeles Center
Fri 01:21:54 PM 34.8028 -114.2233 80° East 428 493 25,500 -1,065 Descending Los Angeles Center
Fri 01:22:56 PM 34.8269 -114.0550 80° East 423 487 24,300 -1,065 Descending Los Angeles Center
Fri 01:23:58 PM 34.8464 -113.9228 80° East 414 476 23,300 -903 Descending Los Angeles Center
Fri 01:24:29 PM 34.8544 -113.8719 79° East 408 470 22,900 -1,032 Descending Albuquerque Center
Fri 01:25:31 PM 34.8767 -113.7147 80° East 399 459 21,700 -1,021 Descending Albuquerque Center
Fri 01:26:03 PM 34.8839 -113.6633 80° East 395 455 21,300 -447 Descending Los Angeles Center
Fri 01:27:05 PM 34.9019 -113.5342 80° East 392 451 21,000 -145 Descending Los Angeles Center
Fri 01:28:07 PM 34.9239 -113.3769 80° East 397 457 21,000  Level Los Angeles Center
Fri 01:28:37 PM 34.9314 -113.3233 80° East 398 458 21,000  Level Albuquerque Center
Fri 01:29:39 PM 34.9483 -113.1922 81° East 398 458 21,000  Level Albuquerque Center
Fri 01:30:41 PM 34.9711 -113.0344 80° East 398 458 21,000  Level Albuquerque Center
Fri 01:31:43 PM 34.9875 -112.9050 81° East 396 456 21,000  Level Albuquerque Center
Fri 01:32:45 PM 35.0044 -112.7794 81° East 387 445 21,000  Level Albuquerque Center
Fri 01:33:47 PM 35.0211 -112.6547 81° East 380 437 21,000 -306 Level Albuquerque Center
Fri 01:35:22 PM 35.0472 -112.4547 81° East 379 436 20,200 -1,065 Descending Los Angeles Center
Fri 01:35:51 PM 35.0572 -112.3789 81° East 379 436 18,800 -2,308 Descending Albuquerque Center
Fri 01:36:53 PM 35.0736 -112.2533 81° East 380 437 16,700 -1,887 Descending Albuquerque Center
Fri 01:37:55 PM 35.0886 -112.1364 81° East 362 417 14,900 -1,500 Descending Albuquerque Center
Fri 01:38:57 PM 35.1022 -112.0269 81° East 340 391 13,600 -1,935 Descending Albuquerque Center
Fri 01:39:59 PM 35.0964 -111.9078 93° East 299 344 10,900 -1,968 Descending Albuquerque Center
Fri 01:41:02 PM 35.0833 -111.8158 100° East 287 330 9,500 -1,008 Descending Albuquerque Center
Fri 01:42:04 PM 35.0708 -111.7239 99° East 272 313 8,800 -677 Descending Albuquerque Center

Login

Don't have an account? Register now (free) for customized features, flight alerts, and more!